createdAt,value
2023-04-08T00:01:24.874Z,7.30
2023-04-08T00:03:54.310Z,6.88
2023-04-08T00:06:22.268Z,6.84
2023-04-08T00:08:50.654Z,6.83
2023-04-08T00:11:18.720Z,7.05
2023-04-08T00:13:46.594Z,7.14
2023-04-08T00:16:14.545Z,7.14
2023-04-08T00:18:42.736Z,7.23
2023-04-08T00:21:12.012Z,7.23
2023-04-08T00:23:39.885Z,7.14
2023-04-08T00:26:07.739Z,6.97
2023-04-08T00:28:35.652Z,6.85
2023-04-08T00:31:04.020Z,6.95
2023-04-08T00:33:32.558Z,7.04
2023-04-08T00:36:00.492Z,6.91
2023-04-08T00:38:29.982Z,7.12
2023-04-08T00:40:58.416Z,7.15
2023-04-08T00:43:26.322Z,7.21
2023-04-08T00:45:54.274Z,7.18
2023-04-08T00:48:22.243Z,7.26
2023-04-08T00:50:50.110Z,7.27
2023-04-08T00:53:20.381Z,6.89
2023-04-08T00:55:49.625Z,7.02
2023-04-08T00:58:19.234Z,7.10
2023-04-08T01:00:53.736Z,6.98
2023-04-08T01:03:31.619Z,7.14
2023-04-08T01:06:08.092Z,7.30
2023-04-08T01:08:39.273Z,7.41
2023-04-08T01:11:12.530Z,7.44
2023-04-08T01:13:43.033Z,7.26
2023-04-08T01:16:13.973Z,7.29
2023-04-08T01:18:44.461Z,7.40
2023-04-08T01:21:13.813Z,7.42
2023-04-08T01:23:52.828Z,7.36
2023-04-08T01:26:25.677Z,7.41
2023-04-08T01:28:56.129Z,7.42
2023-04-08T01:31:26.624Z,7.44
2023-04-08T01:33:56.022Z,7.43
2023-04-08T01:36:25.475Z,7.49
2023-04-08T01:38:53.647Z,7.52
2023-04-08T01:41:23.589Z,7.45
2023-04-08T01:43:53.043Z,7.24
2023-04-08T01:46:22.858Z,7.20
2023-04-08T01:48:52.039Z,7.18
2023-04-08T01:51:21.021Z,7.35
2023-04-08T01:53:48.935Z,7.30
2023-04-08T01:56:17.680Z,7.24
2023-04-08T01:58:52.795Z,7.30
2023-04-08T02:01:23.971Z,7.12
2023-04-08T02:03:53.208Z,7.19
2023-04-08T02:06:21.200Z,7.04
2023-04-08T02:08:49.301Z,7.10
2023-04-08T02:11:17.289Z,7.01
2023-04-08T02:13:45.187Z,7.19
2023-04-08T02:16:19.500Z,7.16
2023-04-08T02:18:55.663Z,6.97
2023-04-08T02:21:27.945Z,7.08
2023-04-08T02:23:56.832Z,7.05
2023-04-08T02:26:26.229Z,7.16
2023-04-08T02:28:57.322Z,7.13
2023-04-08T02:31:28.029Z,6.98
2023-04-08T02:33:57.055Z,7.08
2023-04-08T02:36:26.034Z,6.95
2023-04-08T02:38:53.964Z,7.14
2023-04-08T02:41:22.234Z,7.26
2023-04-08T02:43:55.535Z,7.25
2023-04-08T02:46:23.595Z,7.18
2023-04-08T02:48:52.955Z,7.19
2023-04-08T02:51:21.133Z,7.25
2023-04-08T02:53:49.057Z,7.26
2023-04-08T02:56:16.976Z,7.30
2023-04-08T02:58:44.894Z,7.22
2023-04-08T03:01:12.814Z,7.12
2023-04-08T03:03:41.111Z,6.85
2023-04-08T03:06:10.499Z,6.94
2023-04-08T03:08:38.416Z,6.82
2023-04-08T03:11:06.386Z,6.98
2023-04-08T03:13:34.266Z,7.13
2023-04-08T03:16:02.273Z,7.20
2023-04-08T03:18:30.177Z,7.10
2023-04-08T03:20:58.164Z,6.98
2023-04-08T03:23:27.410Z,7.09
2023-04-08T03:25:55.305Z,7.04
2023-04-08T03:28:23.256Z,7.15
2023-04-08T03:30:51.382Z,7.11
2023-04-08T03:33:19.422Z,7.04
2023-04-08T03:35:47.690Z,7.09
2023-04-08T03:38:15.770Z,6.86
2023-04-08T03:40:45.025Z,7.06
2023-04-08T03:43:13.030Z,7.09
2023-04-08T03:45:40.966Z,7.11
2023-04-08T03:48:09.144Z,7.05
2023-04-08T03:50:37.038Z,7.11
2023-04-08T03:53:04.906Z,7.20
2023-04-08T03:55:32.789Z,7.26
2023-04-08T03:58:02.029Z,7.24
2023-04-08T04:00:30.041Z,7.35
2023-04-08T04:02:58.038Z,7.34
2023-04-08T04:05:25.989Z,7.34
2023-04-08T04:07:53.893Z,7.41
2023-04-08T04:10:21.774Z,7.34
2023-04-08T04:12:51.113Z,7.35
2023-04-08T04:15:20.417Z,7.38
2023-04-08T04:17:50.396Z,7.28
2023-04-08T04:20:18.475Z,7.22
2023-04-08T04:22:46.460Z,7.31
2023-04-08T04:25:14.396Z,7.30
2023-04-08T04:27:42.263Z,7.23
2023-04-08T04:30:10.671Z,7.34
2023-04-08T04:32:40.166Z,7.43
2023-04-08T04:35:08.618Z,7.53
2023-04-08T04:37:36.528Z,7.41
2023-04-08T04:40:05.000Z,7.30
2023-04-08T04:42:33.322Z,7.30
2023-04-08T04:45:01.256Z,7.28
2023-04-08T04:47:29.183Z,7.39
2023-04-08T04:49:58.484Z,7.44
2023-04-08T04:52:26.655Z,7.50
2023-04-08T04:54:54.730Z,7.58
2023-04-08T04:57:22.620Z,7.61
2023-04-08T04:59:50.522Z,7.55
2023-04-08T05:02:18.561Z,7.53
2023-04-08T05:04:47.067Z,7.47
2023-04-08T05:07:16.400Z,7.25
2023-04-08T05:09:44.279Z,7.16
2023-04-08T05:12:12.635Z,7.24
2023-04-08T05:14:42.225Z,7.49
2023-04-08T05:17:10.189Z,7.51
2023-04-08T05:19:38.083Z,7.21
2023-04-08T05:22:06.086Z,7.20
2023-04-08T05:24:36.448Z,7.19
2023-04-08T05:27:04.537Z,7.30
2023-04-08T05:29:32.426Z,7.16
2023-04-08T05:32:00.504Z,7.16
2023-04-08T05:34:28.427Z,7.48
2023-04-08T05:36:56.345Z,7.47
2023-04-08T05:39:24.222Z,7.46
2023-04-08T05:41:53.733Z,7.51
2023-04-08T05:44:21.595Z,7.71
2023-04-08T05:46:49.576Z,7.95
2023-04-08T05:49:18.271Z,7.98
2023-04-08T05:51:46.264Z,8.19
2023-04-08T05:54:14.162Z,8.19
2023-04-08T05:56:42.095Z,8.46
2023-04-08T05:59:11.329Z,8.50
2023-04-08T06:01:39.312Z,8.71
2023-04-08T06:04:07.353Z,8.91
2023-04-08T06:06:35.525Z,8.99
2023-04-08T06:09:03.427Z,8.77
2023-04-08T06:11:31.306Z,9.01
2023-04-08T06:13:59.266Z,8.53
2023-04-08T06:16:28.720Z,9.12
2023-04-08T06:18:56.743Z,9.07
2023-04-08T06:21:24.663Z,9.06
2023-04-08T06:23:52.684Z,9.02
2023-04-08T06:26:20.570Z,9.11
2023-04-08T06:28:48.728Z,9.29
2023-04-08T06:31:16.840Z,9.15
2023-04-08T06:33:46.135Z,9.76
2023-04-08T06:36:14.020Z,9.59
2023-04-08T06:38:41.917Z,9.46
2023-04-08T06:41:10.133Z,9.68
2023-04-08T06:43:38.547Z,9.60
2023-04-08T06:46:07.089Z,9.72
2023-04-08T06:48:35.132Z,9.95
2023-04-08T06:51:04.614Z,10.01
2023-04-08T06:53:33.451Z,9.73
2023-04-08T06:56:01.597Z,9.93
2023-04-08T06:58:30.034Z,10.00
2023-04-08T07:00:58.016Z,10.06
2023-04-08T07:03:26.719Z,10.31
2023-04-08T07:05:55.589Z,10.30
2023-04-08T07:08:24.939Z,9.96
2023-04-08T07:10:53.933Z,10.00
2023-04-08T07:13:21.886Z,10.19
2023-04-08T07:15:50.031Z,10.15
2023-04-08T07:18:18.051Z,10.52
2023-04-08T07:20:46.573Z,10.54
2023-04-08T07:23:14.542Z,9.82
2023-04-08T07:25:43.815Z,10.51
2023-04-08T07:28:11.809Z,10.28
2023-04-08T07:30:39.784Z,10.61
2023-04-08T07:33:07.853Z,10.52
2023-04-08T07:35:35.923Z,10.56
2023-04-08T07:38:03.874Z,10.41
2023-04-08T07:40:31.834Z,10.88
2023-04-08T07:43:01.128Z,11.13
2023-04-08T07:45:29.102Z,10.48
2023-04-08T07:47:57.303Z,10.30
2023-04-08T07:50:25.264Z,10.16
2023-04-08T07:52:53.429Z,10.43
2023-04-08T07:55:21.616Z,10.27
2023-04-08T07:57:49.566Z,10.18
2023-04-08T08:00:21.849Z,10.51
2023-04-08T08:02:50.047Z,10.58
2023-04-08T08:05:18.098Z,10.48
2023-04-08T08:07:46.212Z,10.42
2023-04-08T08:10:14.295Z,10.18
2023-04-08T08:12:42.258Z,10.37
2023-04-08T08:15:11.897Z,10.53
2023-04-08T08:17:41.465Z,10.64
2023-04-08T08:20:10.511Z,10.84
2023-04-08T08:22:47.238Z,11.18
2023-04-08T08:25:26.087Z,11.30
2023-04-08T08:27:55.481Z,11.50
2023-04-08T08:30:23.544Z,11.90
2023-04-08T08:32:53.218Z,11.91
2023-04-08T08:35:21.334Z,12.07
2023-04-08T08:37:49.446Z,11.71
2023-04-08T08:40:17.656Z,11.93
2023-04-08T08:42:52.141Z,12.16
2023-04-08T08:45:21.215Z,12.44
2023-04-08T08:47:51.217Z,12.96
2023-04-08T08:50:21.177Z,12.71
2023-04-08T08:52:52.927Z,13.14
2023-04-08T08:55:34.938Z,12.89
2023-04-08T08:58:04.754Z,12.58
2023-04-08T09:00:34.771Z,12.97
2023-04-08T09:03:19.724Z,13.01
2023-04-08T09:05:54.847Z,12.52
2023-04-08T09:08:30.290Z,12.47
2023-04-08T09:11:12.652Z,12.35
2023-04-08T09:13:40.920Z,12.35
2023-04-08T09:16:10.314Z,12.54
2023-04-08T09:18:40.018Z,12.49
2023-04-08T09:21:09.448Z,12.54
2023-04-08T09:23:44.865Z,12.83
2023-04-08T09:26:14.240Z,12.35
2023-04-08T09:28:43.493Z,13.00
2023-04-08T09:31:22.118Z,12.68
2023-04-08T09:33:51.616Z,13.04
2023-04-08T09:36:21.202Z,13.32
2023-04-08T09:38:49.236Z,13.25
2023-04-08T09:41:18.690Z,13.27
2023-04-08T09:43:50.936Z,13.28
2023-04-08T09:46:25.875Z,13.47
2023-04-08T09:49:02.732Z,13.98
2023-04-08T09:51:37.970Z,13.31
2023-04-08T09:54:14.051Z,13.54
2023-04-08T09:56:49.211Z,13.79
2023-04-08T09:59:21.816Z,13.73
2023-04-08T10:01:55.216Z,14.15
2023-04-08T10:04:27.013Z,14.67
2023-04-08T10:07:02.232Z,14.11
2023-04-08T10:09:31.115Z,14.30
2023-04-08T10:11:59.408Z,14.08
2023-04-08T10:14:28.856Z,13.61
2023-04-08T10:17:28.637Z,13.53
2023-04-08T10:19:59.614Z,13.39
2023-04-08T10:22:51.278Z,13.56
2023-04-08T10:25:33.303Z,13.50
2023-04-08T10:28:05.029Z,13.11
2023-04-08T10:30:42.241Z,13.53
2023-04-08T10:33:15.227Z,13.65
2023-04-08T10:35:46.592Z,13.71
2023-04-08T10:38:17.235Z,14.05
2023-04-08T10:40:46.541Z,14.34
2023-04-08T10:43:16.208Z,14.20
2023-04-08T10:45:48.505Z,14.14
2023-04-08T10:48:19.594Z,13.86
2023-04-08T10:50:55.213Z,13.90
2023-04-08T10:53:33.966Z,13.66
2023-04-08T10:56:06.581Z,13.88
2023-04-08T10:58:34.895Z,13.98
2023-04-08T11:01:07.915Z,13.63
2023-04-08T11:03:37.663Z,13.81
2023-04-08T11:06:07.668Z,13.82
2023-04-08T11:08:38.697Z,14.10
2023-04-08T11:11:09.563Z,14.17
2023-04-08T11:13:37.718Z,14.34
2023-04-08T11:16:17.111Z,14.55
2023-04-08T11:18:48.102Z,14.71
2023-04-08T11:21:17.276Z,14.90
2023-04-08T11:23:47.089Z,15.01
2023-04-08T11:26:16.405Z,15.19
2023-04-08T11:28:45.576Z,15.24
2023-04-08T11:31:14.882Z,15.04
2023-04-08T11:33:47.010Z,14.71
2023-04-08T11:36:15.689Z,14.38
2023-04-08T11:38:44.259Z,14.13
2023-04-08T11:41:13.581Z,14.50
2023-04-08T11:43:52.084Z,14.71
2023-04-08T11:46:20.664Z,14.79
2023-04-08T11:49:08.416Z,14.74
2023-04-08T11:51:37.968Z,15.01
2023-04-08T11:54:07.519Z,15.25
2023-04-08T11:56:48.362Z,15.48
2023-04-08T11:59:16.382Z,15.23
2023-04-08T12:01:44.653Z,14.90
2023-04-08T12:04:12.863Z,14.99
2023-04-08T12:06:43.894Z,14.47
2023-04-08T12:09:11.978Z,14.10
2023-04-08T12:11:40.134Z,14.22
2023-04-08T12:14:09.803Z,14.15
2023-04-08T12:16:37.999Z,14.07
2023-04-08T12:19:06.435Z,14.04
2023-04-08T12:21:35.121Z,14.19
2023-04-08T12:24:03.676Z,14.11
2023-04-08T12:26:31.735Z,13.86
2023-04-08T12:28:59.749Z,13.60
2023-04-08T12:31:29.712Z,13.99
2023-04-08T12:33:57.700Z,13.93
2023-04-08T12:36:27.208Z,13.97
2023-04-08T12:38:55.591Z,14.03
2023-04-08T12:41:24.259Z,13.98
2023-04-08T12:43:52.236Z,14.33
2023-04-08T12:46:20.187Z,13.82
2023-04-08T12:48:59.934Z,14.13
2023-04-08T12:51:32.407Z,14.33
2023-04-08T12:54:01.470Z,14.29
2023-04-08T12:56:29.409Z,14.47
2023-04-08T12:58:58.170Z,14.50
2023-04-08T13:01:26.642Z,14.48
2023-04-08T13:03:57.173Z,14.51
2023-04-08T13:06:25.444Z,14.65
2023-04-08T13:08:53.676Z,14.34
2023-04-08T13:11:22.568Z,14.33
2023-04-08T13:13:50.611Z,14.21
2023-04-08T13:16:19.025Z,13.65
2023-04-08T13:18:47.175Z,13.25
2023-04-08T13:21:16.749Z,13.81
2023-04-08T13:23:44.728Z,13.56
2023-04-08T13:26:12.761Z,13.64
2023-04-08T13:28:56.065Z,13.76
2023-04-08T13:31:26.397Z,13.54
2023-04-08T13:33:57.655Z,13.42
2023-04-08T13:36:28.849Z,13.78
2023-04-08T13:38:57.650Z,13.71
2023-04-08T13:41:28.309Z,13.68
2023-04-08T13:43:56.934Z,13.99
2023-04-08T13:46:25.178Z,13.80
2023-04-08T13:48:53.846Z,13.62
2023-04-08T13:51:22.086Z,13.61
2023-04-08T13:53:51.407Z,13.70
2023-04-08T13:56:19.593Z,13.54
2023-04-08T13:58:55.214Z,13.32
2023-04-08T14:01:25.056Z,13.12
2023-04-08T14:03:53.402Z,13.27
2023-04-08T14:06:21.859Z,12.86
2023-04-08T14:08:51.619Z,12.68
2023-04-08T14:11:20.030Z,12.94
2023-04-08T14:13:48.343Z,12.58
2023-04-08T14:16:16.812Z,12.24
2023-04-08T14:18:45.205Z,12.02
2023-04-08T14:21:15.040Z,12.01
2023-04-08T14:23:43.035Z,12.13
2023-04-08T14:26:13.162Z,12.38
2023-04-08T14:28:41.655Z,12.25
2023-04-08T14:31:09.753Z,12.02
2023-04-08T14:33:39.169Z,12.02
2023-04-08T14:36:07.738Z,12.13
2023-04-08T14:38:35.794Z,12.01
2023-04-08T14:41:04.576Z,12.10
2023-04-08T14:43:34.041Z,12.14
2023-04-08T14:46:02.495Z,12.28
2023-04-08T14:48:31.478Z,12.25
2023-04-08T14:51:00.168Z,12.20
2023-04-08T14:53:28.476Z,12.29
2023-04-08T14:55:56.628Z,12.41
2023-04-08T14:58:24.692Z,12.35
2023-04-08T15:00:55.357Z,12.50
2023-04-08T15:03:23.536Z,12.42
2023-04-08T15:05:51.617Z,12.29
2023-04-08T15:08:19.543Z,12.49
2023-04-08T15:10:47.424Z,12.52
2023-04-08T15:13:15.472Z,12.60
2023-04-08T15:15:43.401Z,12.57
2023-04-08T15:18:13.058Z,12.70
2023-04-08T15:20:41.587Z,12.65
2023-04-08T15:23:10.103Z,12.39
2023-04-08T15:25:38.288Z,12.42
2023-04-08T15:28:06.350Z,12.46
2023-04-08T15:30:35.897Z,12.40
2023-04-08T15:33:07.130Z,12.04
2023-04-08T15:35:39.316Z,12.20
2023-04-08T15:38:07.811Z,12.18
2023-04-08T15:40:36.146Z,12.34
2023-04-08T15:43:05.008Z,12.16
2023-04-08T15:45:33.596Z,12.38
2023-04-08T15:48:01.683Z,12.04
2023-04-08T15:50:30.901Z,12.02
2023-04-08T15:53:00.489Z,12.18
2023-04-08T15:55:28.497Z,12.42
2023-04-08T15:57:57.264Z,12.02
2023-04-08T16:00:26.095Z,12.21
2023-04-08T16:02:54.332Z,11.46
2023-04-08T16:05:22.512Z,11.81
2023-04-08T16:07:50.722Z,12.00
2023-04-08T16:10:20.559Z,11.95
2023-04-08T16:12:49.342Z,12.09
2023-04-08T16:15:17.755Z,12.18
2023-04-08T16:17:52.076Z,12.09
2023-04-08T16:20:20.677Z,12.15
2023-04-08T16:22:50.460Z,12.11
2023-04-08T16:25:20.037Z,11.93
2023-04-08T16:27:49.083Z,11.71
2023-04-08T16:30:17.514Z,11.50
2023-04-08T16:32:46.100Z,11.59
2023-04-08T16:35:14.338Z,11.61
2023-04-08T16:37:42.420Z,11.49
2023-04-08T16:40:11.569Z,11.33
2023-04-08T16:42:41.918Z,11.45
2023-04-08T16:45:11.126Z,11.50
2023-04-08T16:47:41.912Z,11.31
2023-04-08T16:50:10.979Z,11.13
2023-04-08T16:52:39.170Z,10.93
2023-04-08T16:55:08.216Z,10.74
2023-04-08T16:57:36.548Z,10.53
2023-04-08T17:00:07.687Z,10.61
2023-04-08T17:02:36.056Z,10.49
2023-04-08T17:05:04.350Z,10.56
2023-04-08T17:07:32.812Z,10.61
2023-04-08T17:10:01.064Z,10.74
2023-04-08T17:12:29.205Z,10.75
2023-04-08T17:14:57.154Z,10.83
2023-04-08T17:17:26.476Z,10.84
2023-04-08T17:19:54.843Z,10.84
2023-04-08T17:22:22.738Z,10.73
2023-04-08T17:24:50.868Z,10.79
2023-04-08T17:27:18.882Z,10.67
2023-04-08T17:29:46.855Z,10.67
2023-04-08T17:32:14.772Z,10.71
2023-04-08T17:34:44.187Z,10.81
2023-04-08T17:37:12.518Z,10.64
2023-04-08T17:39:41.179Z,10.65
2023-04-08T17:42:09.362Z,10.78
2023-04-08T17:44:37.807Z,10.71
2023-04-08T17:47:06.045Z,10.79
2023-04-08T17:49:34.296Z,10.80
2023-04-08T17:52:03.586Z,10.87
2023-04-08T17:54:34.465Z,10.92
2023-04-08T17:57:03.054Z,10.97
2023-04-08T17:59:31.082Z,10.66
2023-04-08T18:01:59.079Z,10.67
2023-04-08T18:04:27.759Z,10.54
2023-04-08T18:06:57.317Z,10.62
2023-04-08T18:09:26.580Z,10.77
2023-04-08T18:11:54.466Z,10.72
2023-04-08T18:14:22.354Z,10.73
2023-04-08T18:16:50.402Z,10.66
2023-04-08T18:19:18.850Z,10.60
2023-04-08T18:21:46.882Z,10.39
2023-04-08T18:24:14.788Z,10.60
2023-04-08T18:26:45.448Z,10.58
2023-04-08T18:29:18.145Z,10.51
2023-04-08T18:31:46.612Z,9.71
2023-04-08T18:34:14.515Z,9.88
2023-04-08T18:36:42.571Z,10.00
2023-04-08T18:39:10.831Z,9.66
2023-04-08T18:41:39.483Z,9.82
2023-04-08T18:44:09.012Z,9.45
2023-04-08T18:46:37.123Z,9.41
2023-04-08T18:49:05.269Z,9.11
2023-04-08T18:51:33.546Z,9.11
2023-04-08T18:54:02.385Z,9.04
2023-04-08T18:56:30.693Z,9.23
2023-04-08T18:58:58.806Z,9.36
2023-04-08T19:01:29.181Z,9.25
2023-04-08T19:03:57.134Z,9.08
2023-04-08T19:06:26.096Z,9.18
2023-04-08T19:08:54.185Z,9.23
2023-04-08T19:11:26.577Z,9.34
2023-04-08T19:13:54.877Z,9.30
2023-04-08T19:16:22.859Z,9.32
2023-04-08T19:18:52.878Z,9.40
2023-04-08T19:21:21.854Z,9.51
2023-04-08T19:23:50.747Z,9.56
2023-04-08T19:26:19.080Z,9.29
2023-04-08T19:28:47.313Z,9.46
2023-04-08T19:31:18.861Z,9.54
2023-04-08T19:33:46.916Z,9.56
2023-04-08T19:36:16.384Z,9.60
2023-04-08T19:38:44.274Z,9.54
2023-04-08T19:41:12.246Z,9.50
2023-04-08T19:43:40.285Z,9.49
2023-04-08T19:46:08.959Z,9.27
2023-04-08T19:48:37.043Z,9.18
2023-04-08T19:51:05.238Z,8.86
2023-04-08T19:53:34.578Z,8.98
2023-04-08T19:56:02.957Z,9.04
2023-04-08T19:58:31.251Z,9.10
2023-04-08T20:00:59.275Z,8.92
2023-04-08T20:03:27.430Z,8.95
2023-04-08T20:05:55.508Z,8.81
2023-04-08T20:08:23.474Z,8.37
2023-04-08T20:10:53.964Z,8.84
2023-04-08T20:13:21.943Z,8.54
2023-04-08T20:15:49.865Z,8.83
2023-04-08T20:18:17.812Z,8.94
2023-04-08T20:20:46.889Z,8.96
2023-04-08T20:23:14.790Z,8.69
2023-04-08T20:25:42.691Z,8.66
2023-04-08T20:28:12.086Z,8.44
2023-04-08T20:30:40.860Z,8.39
2023-04-08T20:33:08.777Z,8.21
2023-04-08T20:35:37.472Z,8.36
2023-04-08T20:38:05.704Z,8.23
2023-04-08T20:40:33.638Z,8.25
2023-04-08T20:43:01.493Z,8.20
2023-04-08T20:45:30.803Z,8.10
2023-04-08T20:47:58.783Z,8.03
2023-04-08T20:50:28.539Z,7.97
2023-04-08T20:52:56.449Z,7.89
2023-04-08T20:55:24.320Z,7.81
2023-04-08T20:57:52.206Z,7.76
2023-04-08T21:00:20.352Z,7.73
2023-04-08T21:02:50.415Z,7.68
2023-04-08T21:05:24.366Z,7.62
2023-04-08T21:08:03.516Z,7.56
2023-04-08T21:10:36.393Z,7.51
2023-04-08T21:13:09.431Z,7.45
2023-04-08T21:15:38.354Z,7.43
2023-04-08T21:18:14.036Z,7.47
2023-04-08T21:20:45.693Z,7.43
2023-04-08T21:23:18.678Z,7.39
2023-04-08T21:25:51.828Z,7.38
2023-04-08T21:28:25.156Z,7.24
2023-04-08T21:30:58.781Z,7.37
2023-04-08T21:33:33.125Z,7.39
2023-04-08T21:36:06.380Z,7.35
2023-04-08T21:38:39.905Z,7.42
2023-04-08T21:41:10.697Z,7.47
2023-04-08T21:43:41.024Z,7.42
2023-04-08T21:46:13.686Z,7.53
2023-04-08T21:48:48.320Z,7.50
2023-04-08T21:51:21.589Z,7.62
2023-04-08T21:53:55.780Z,7.52
2023-04-08T21:56:24.602Z,7.68
2023-04-08T21:58:52.808Z,7.68
2023-04-08T22:01:20.999Z,7.65
2023-04-08T22:03:52.433Z,7.51
2023-04-08T22:06:31.502Z,7.55
2023-04-08T22:09:00.733Z,7.52
2023-04-08T22:11:28.683Z,7.50
2023-04-08T22:13:56.681Z,7.59
2023-04-08T22:16:24.617Z,7.58
2023-04-08T22:18:54.231Z,7.56
2023-04-08T22:21:22.799Z,7.64
2023-04-08T22:23:50.744Z,7.57
2023-04-08T22:26:18.675Z,7.57
2023-04-08T22:28:46.585Z,7.41
2023-04-08T22:31:14.517Z,7.46
2023-04-08T22:33:42.547Z,7.52
2023-04-08T22:36:11.875Z,7.61
2023-04-08T22:38:39.856Z,7.53
2023-04-08T22:41:07.767Z,7.63
2023-04-08T22:43:35.692Z,7.67
2023-04-08T22:46:03.621Z,7.58
2023-04-08T22:48:31.584Z,7.37
2023-04-08T22:50:59.481Z,7.51
2023-04-08T22:53:28.810Z,7.40
2023-04-08T22:55:56.714Z,7.19
2023-04-08T22:58:24.616Z,7.31
2023-04-08T23:00:52.535Z,7.45
2023-04-08T23:03:20.493Z,7.57
2023-04-08T23:05:48.394Z,7.63
2023-04-08T23:08:17.568Z,7.67
2023-04-08T23:10:46.870Z,7.66
2023-04-08T23:13:15.149Z,7.58
2023-04-08T23:15:43.649Z,7.66
2023-04-08T23:18:11.609Z,7.74
2023-04-08T23:20:39.509Z,7.79
2023-04-08T23:23:07.418Z,7.79
2023-04-08T23:25:36.578Z,7.82
2023-04-08T23:28:06.238Z,7.83
2023-04-08T23:30:34.182Z,7.82
2023-04-08T23:33:02.082Z,7.81
2023-04-08T23:35:30.163Z,7.78
2023-04-08T23:37:58.110Z,7.76
2023-04-08T23:40:26.080Z,7.80
2023-04-08T23:42:54.068Z,7.78
2023-04-08T23:45:23.474Z,7.79
2023-04-08T23:47:51.753Z,7.49
2023-04-08T23:50:20.345Z,7.54
2023-04-08T23:52:48.207Z,7.56
2023-04-08T23:55:16.214Z,7.68
2023-04-08T23:57:44.679Z,7.83
